createdAt,value
2023-02-19T00:00:41.494Z,1
2023-02-19T00:01:41.584Z,1
2023-02-19T00:02:41.477Z,1
2023-02-19T00:03:41.513Z,1
2023-02-19T00:04:41.535Z,1
2023-02-19T00:05:41.482Z,1
2023-02-19T00:06:41.489Z,1
2023-02-19T00:07:41.475Z,1
2023-02-19T00:08:41.498Z,1
2023-02-19T00:09:41.517Z,1
2023-02-19T00:10:41.489Z,1
2023-02-19T00:11:41.488Z,1
2023-02-19T00:12:41.478Z,1
2023-02-19T00:13:41.484Z,1
2023-02-19T00:14:41.504Z,1
2023-02-19T00:15:41.477Z,1
2023-02-19T00:16:41.478Z,1
2023-02-19T00:17:41.480Z,1
2023-02-19T00:18:41.521Z,1
2023-02-19T00:19:41.489Z,1
2023-02-19T00:20:41.494Z,1
2023-02-19T00:21:41.476Z,1
2023-02-19T00:22:41.555Z,1
2023-02-19T00:23:41.479Z,1
2023-02-19T00:24:41.490Z,1
2023-02-19T00:25:41.474Z,1
2023-02-19T00:26:41.541Z,1
2023-02-19T00:27:41.559Z,1
2023-02-19T00:28:41.492Z,1
2023-02-19T00:29:41.493Z,1
2023-02-19T00:30:41.601Z,1
2023-02-19T00:31:41.624Z,1
2023-02-19T00:32:41.511Z,1
2023-02-19T00:33:41.505Z,1
2023-02-19T00:34:41.507Z,2
2023-02-19T00:35:41.491Z,1
2023-02-19T00:36:41.490Z,1
2023-02-19T00:37:41.488Z,2
2023-02-19T00:38:41.487Z,2
2023-02-19T00:39:41.504Z,1
2023-02-19T00:40:41.484Z,1
2023-02-19T00:41:41.520Z,1
2023-02-19T00:42:41.491Z,1
2023-02-19T00:43:41.488Z,2
2023-02-19T00:44:41.520Z,2
2023-02-19T00:45:41.493Z,2
2023-02-19T00:46:41.600Z,2
2023-02-19T00:47:41.486Z,2
2023-02-19T00:48:41.528Z,2
2023-02-19T00:49:41.504Z,2
2023-02-19T00:50:41.474Z,2
2023-02-19T00:51:41.474Z,2
2023-02-19T00:52:41.510Z,2
2023-02-19T00:53:41.484Z,2
2023-02-19T00:54:41.492Z,2
2023-02-19T00:55:41.489Z,2
2023-02-19T00:56:41.480Z,2
2023-02-19T00:57:41.491Z,2
2023-02-19T00:58:41.525Z,2
2023-02-19T00:59:41.500Z,2
2023-02-19T01:00:41.489Z,2
2023-02-19T01:01:41.529Z,2
2023-02-19T01:02:41.491Z,2
2023-02-19T01:03:41.521Z,2
2023-02-19T01:04:41.524Z,2
2023-02-19T01:05:41.481Z,2
2023-02-19T01:06:41.475Z,2
2023-02-19T01:07:41.536Z,2
2023-02-19T01:08:41.494Z,2
2023-02-19T01:10:41.481Z,2
2023-02-19T01:11:41.501Z,2
2023-02-19T01:12:41.500Z,2
2023-02-19T01:13:41.513Z,2
2023-02-19T01:14:41.511Z,2
2023-02-19T01:15:41.507Z,2
2023-02-19T01:16:41.483Z,2
2023-02-19T01:17:41.522Z,2
2023-02-19T01:18:41.495Z,2
2023-02-19T01:19:41.491Z,2
2023-02-19T01:20:41.495Z,2
2023-02-19T01:21:41.476Z,2
2023-02-19T01:22:41.483Z,3
2023-02-19T01:23:41.508Z,3
2023-02-19T01:24:41.480Z,3
2023-02-19T01:25:41.494Z,2
2023-02-19T01:26:41.497Z,2
2023-02-19T01:27:41.477Z,3
2023-02-19T01:28:41.473Z,3
2023-02-19T01:29:41.485Z,3
2023-02-19T01:30:41.476Z,3
2023-02-19T01:31:41.565Z,3
2023-02-19T01:32:41.537Z,2
2023-02-19T01:33:41.506Z,3
2023-02-19T01:34:41.527Z,3
2023-02-19T01:35:41.462Z,3
2023-02-19T01:36:41.491Z,2
2023-02-19T01:37:41.474Z,3
2023-02-19T01:38:44.646Z,3
2023-02-19T01:39:41.490Z,3
2023-02-19T01:40:41.492Z,3
2023-02-19T01:41:41.486Z,3
2023-02-19T01:42:41.500Z,3
2023-02-19T01:43:41.492Z,3
2023-02-19T01:44:41.492Z,3
2023-02-19T01:45:41.489Z,3
2023-02-19T01:46:41.559Z,3
2023-02-19T01:47:41.494Z,3
2023-02-19T01:48:41.541Z,3
2023-02-19T01:49:41.490Z,3
2023-02-19T01:50:41.468Z,3
2023-02-19T01:51:41.494Z,3
2023-02-19T01:52:41.497Z,4
2023-02-19T01:53:41.500Z,3
2023-02-19T01:54:41.483Z,3
2023-02-19T01:55:41.530Z,3
2023-02-19T01:56:41.609Z,3
2023-02-19T01:57:41.500Z,3
2023-02-19T01:58:41.474Z,4
2023-02-19T01:59:41.508Z,3
2023-02-19T02:00:41.589Z,3
2023-02-19T02:01:41.542Z,3
2023-02-19T02:02:41.524Z,3
2023-02-19T02:03:41.515Z,3
2023-02-19T02:04:41.474Z,3
2023-02-19T02:05:41.521Z,4
2023-02-19T02:06:41.466Z,4
2023-02-19T02:07:41.479Z,4
2023-02-19T02:08:41.490Z,3
2023-02-19T02:09:41.485Z,4
2023-02-19T02:10:41.528Z,3
2023-02-19T02:11:41.484Z,3
2023-02-19T02:13:41.496Z,3
2023-02-19T02:14:41.487Z,3
2023-02-19T02:15:41.517Z,3
2023-02-19T02:16:41.599Z,4
2023-02-19T02:17:41.502Z,4
2023-02-19T02:18:41.517Z,3
2023-02-19T02:19:41.499Z,3
2023-02-19T02:20:41.490Z,3
2023-02-19T02:21:41.514Z,4
2023-02-19T02:22:41.490Z,3
2023-02-19T02:23:41.492Z,3
2023-02-19T02:24:41.492Z,3
2023-02-19T02:25:41.510Z,4
2023-02-19T02:26:41.493Z,3
2023-02-19T02:27:41.488Z,4
2023-02-19T02:28:41.553Z,4
2023-02-19T02:29:41.496Z,4
2023-02-19T02:30:41.498Z,4
2023-02-19T02:31:41.720Z,4
2023-02-19T02:32:41.493Z,3
2023-02-19T02:33:41.668Z,4
2023-02-19T02:34:41.488Z,4
2023-02-19T02:35:41.507Z,4
2023-02-19T02:36:41.511Z,4
2023-02-19T02:37:41.493Z,4
2023-02-19T02:39:41.493Z,4
2023-02-19T02:40:41.510Z,4
2023-02-19T02:41:41.497Z,4
2023-02-19T02:42:41.489Z,4
2023-02-19T02:43:41.489Z,4
2023-02-19T02:44:41.501Z,4
2023-02-19T02:45:41.529Z,4
2023-02-19T02:46:41.521Z,4
2023-02-19T02:47:41.482Z,4
2023-02-19T02:48:41.517Z,4
2023-02-19T02:49:41.491Z,4
2023-02-19T02:50:41.509Z,5
2023-02-19T02:51:41.527Z,4
2023-02-19T02:52:41.486Z,4
2023-02-19T02:53:41.485Z,4
2023-02-19T02:54:41.477Z,4
2023-02-19T02:55:41.515Z,4
2023-02-19T02:56:41.509Z,4
2023-02-19T02:57:41.491Z,4
2023-02-19T02:58:41.502Z,5
2023-02-19T02:59:41.480Z,4
2023-02-19T03:00:41.599Z,4
2023-02-19T03:01:41.483Z,4
2023-02-19T03:02:41.491Z,5
2023-02-19T03:03:41.502Z,5
2023-02-19T03:04:41.494Z,4
2023-02-19T03:05:41.537Z,4
2023-02-19T03:06:41.483Z,5
2023-02-19T03:07:41.498Z,5
2023-02-19T03:08:41.491Z,5
2023-02-19T03:09:41.496Z,5
2023-02-19T03:10:41.518Z,5
2023-02-19T03:11:41.491Z,5
2023-02-19T03:12:41.490Z,5
2023-02-19T03:13:41.490Z,6
2023-02-19T03:14:41.482Z,5
2023-02-19T03:15:41.520Z,6
2023-02-19T03:16:42.931Z,6
2023-02-19T03:17:41.491Z,6
2023-02-19T03:18:41.558Z,6
2023-02-19T03:19:41.487Z,6
2023-02-19T03:20:41.517Z,5
2023-02-19T03:21:41.514Z,5
2023-02-19T03:22:41.496Z,5
2023-02-19T03:23:41.496Z,5
2023-02-19T03:24:41.501Z,5
2023-02-19T03:25:41.490Z,5
2023-02-19T03:26:41.539Z,5
2023-02-19T03:27:41.473Z,5
2023-02-19T03:28:41.500Z,5
2023-02-19T03:29:41.479Z,4
2023-02-19T03:30:41.488Z,5
2023-02-19T03:31:41.595Z,4
2023-02-19T03:32:41.485Z,5
2023-02-19T03:33:41.505Z,5
2023-02-19T03:34:41.486Z,5
2023-02-19T03:35:41.496Z,5
2023-02-19T03:36:41.500Z,5
2023-02-19T03:37:41.482Z,5
2023-02-19T03:38:41.476Z,5
2023-02-19T03:39:41.492Z,5
2023-02-19T03:40:41.505Z,5
2023-02-19T03:41:41.526Z,5
2023-02-19T03:42:41.504Z,5
2023-02-19T03:43:41.479Z,5
2023-02-19T03:44:41.501Z,5
2023-02-19T03:45:41.494Z,5
2023-02-19T03:46:41.519Z,5
2023-02-19T03:47:41.482Z,6
2023-02-19T03:48:41.515Z,5
2023-02-19T03:49:41.497Z,6
2023-02-19T03:50:41.486Z,5
2023-02-19T03:51:41.509Z,6
2023-02-19T03:52:41.492Z,6
2023-02-19T03:53:41.493Z,7
2023-02-19T03:54:41.498Z,6
2023-02-19T03:55:41.517Z,6
2023-02-19T03:56:41.494Z,6
2023-02-19T03:57:41.502Z,6
2023-02-19T03:58:41.500Z,7
2023-02-19T03:59:41.502Z,7
2023-02-19T04:00:41.490Z,7
2023-02-19T04:01:41.510Z,6
2023-02-19T04:02:41.513Z,7
2023-02-19T04:03:41.552Z,7
2023-02-19T04:04:41.561Z,7
2023-02-19T04:05:41.497Z,7
2023-02-19T04:06:41.529Z,7
2023-02-19T04:07:41.494Z,7
2023-02-19T04:08:41.495Z,7
2023-02-19T04:09:41.496Z,7
2023-02-19T04:10:41.502Z,6
2023-02-19T04:11:41.516Z,7
2023-02-19T04:12:41.505Z,7
2023-02-19T04:13:41.496Z,7
2023-02-19T04:14:41.523Z,6
2023-02-19T04:15:41.509Z,7
2023-02-19T04:16:41.576Z,7
2023-02-19T04:17:41.494Z,7
2023-02-19T04:18:41.505Z,7
2023-02-19T04:19:41.517Z,7
2023-02-19T04:20:41.498Z,7
2023-02-19T04:21:41.536Z,7
2023-02-19T04:22:41.508Z,7
2023-02-19T04:23:41.511Z,6
2023-02-19T04:24:41.494Z,7
2023-02-19T04:25:41.501Z,7
2023-02-19T04:26:41.531Z,7
2023-02-19T04:27:41.490Z,7
2023-02-19T04:28:41.534Z,7
2023-02-19T04:29:41.628Z,7
2023-02-19T04:30:41.632Z,7
2023-02-19T04:31:41.524Z,7
2023-02-19T04:32:41.505Z,7
2023-02-19T04:33:41.500Z,7
2023-02-19T04:34:41.516Z,7
2023-02-19T04:35:41.503Z,7
2023-02-19T04:36:41.500Z,7
2023-02-19T04:37:41.524Z,7
2023-02-19T04:38:41.491Z,7
2023-02-19T04:39:41.490Z,7
2023-02-19T04:40:41.497Z,7
2023-02-19T04:41:41.494Z,7
2023-02-19T04:42:41.520Z,7
2023-02-19T04:43:41.495Z,7
2023-02-19T04:44:41.499Z,7
2023-02-19T04:45:41.500Z,7
2023-02-19T04:46:43.144Z,8
2023-02-19T04:47:41.507Z,7
2023-02-19T04:48:41.523Z,7
2023-02-19T04:49:41.490Z,8
2023-02-19T04:50:41.498Z,7
2023-02-19T04:51:41.499Z,8
2023-02-19T04:52:41.522Z,8
2023-02-19T04:53:41.492Z,8
2023-02-19T04:54:41.507Z,8
2023-02-19T04:55:41.498Z,7
2023-02-19T04:56:41.502Z,8
2023-02-19T04:57:41.508Z,7
2023-02-19T04:58:41.499Z,8
2023-02-19T04:59:41.497Z,8
2023-02-19T05:00:41.497Z,8
2023-02-19T05:01:41.532Z,8
2023-02-19T05:02:41.518Z,8
2023-02-19T05:03:41.518Z,8
2023-02-19T05:04:41.662Z,8
2023-02-19T05:05:41.488Z,8
2023-02-19T05:06:41.490Z,8
2023-02-19T05:07:41.528Z,8
2023-02-19T05:08:41.501Z,8
2023-02-19T05:09:41.494Z,8
2023-02-19T05:10:41.493Z,8
2023-02-19T05:11:41.497Z,9
2023-02-19T05:12:41.511Z,7
2023-02-19T05:13:41.604Z,8
2023-02-19T05:14:41.499Z,8
2023-02-19T05:15:41.542Z,9
2023-02-19T05:16:41.673Z,8
2023-02-19T05:17:41.503Z,8
2023-02-19T05:18:41.538Z,8
2023-02-19T05:19:41.482Z,9
2023-02-19T05:20:41.514Z,9
2023-02-19T05:21:41.589Z,8
2023-02-19T05:22:41.537Z,9
2023-02-19T05:23:41.508Z,8
2023-02-19T05:24:41.542Z,8
2023-02-19T05:25:41.499Z,8
2023-02-19T05:26:43.491Z,8
2023-02-19T05:27:41.499Z,8
2023-02-19T05:28:41.500Z,8
2023-02-19T05:29:41.507Z,8
2023-02-19T05:30:41.505Z,8
2023-02-19T05:31:41.601Z,8
2023-02-19T05:32:41.523Z,8
2023-02-19T05:33:41.529Z,8
2023-02-19T05:34:41.494Z,8
2023-02-19T05:35:41.494Z,8
2023-02-19T05:36:41.500Z,9
2023-02-19T05:37:41.499Z,8
2023-02-19T05:38:41.644Z,8
2023-02-19T05:39:41.486Z,8
2023-02-19T05:40:41.487Z,8
2023-02-19T05:41:41.501Z,8
2023-02-19T05:42:41.514Z,9
2023-02-19T05:43:41.505Z,9
2023-02-19T05:44:41.498Z,9
2023-02-19T05:45:41.518Z,9
2023-02-19T05:46:41.572Z,9
2023-02-19T05:47:41.519Z,9
2023-02-19T05:48:41.515Z,9
2023-02-19T05:49:41.507Z,9
2023-02-19T05:50:41.507Z,8
2023-02-19T05:51:41.522Z,9
2023-02-19T05:52:41.520Z,9
2023-02-19T05:53:41.499Z,8
2023-02-19T05:54:41.493Z,9
2023-02-19T05:55:41.509Z,9
2023-02-19T05:56:41.541Z,9
2023-02-19T05:57:43.547Z,10
2023-02-19T05:58:41.505Z,10
2023-02-19T05:59:41.489Z,9
2023-02-19T06:00:41.502Z,10
2023-02-19T06:01:41.491Z,9
2023-02-19T06:02:41.580Z,9
2023-02-19T06:03:41.544Z,9
2023-02-19T06:04:41.496Z,10
2023-02-19T06:05:41.509Z,10
2023-02-19T06:06:41.532Z,10
2023-02-19T06:07:41.516Z,9
2023-02-19T06:08:41.492Z,10
2023-02-19T06:09:41.504Z,9
2023-02-19T06:10:41.491Z,9
2023-02-19T06:11:41.503Z,9
2023-02-19T06:12:41.531Z,9
2023-02-19T06:13:41.499Z,9
2023-02-19T06:14:41.495Z,9
2023-02-19T06:15:41.501Z,9
2023-02-19T06:16:41.503Z,8
2023-02-19T06:17:41.523Z,9
2023-02-19T06:18:41.520Z,9
2023-02-19T06:19:41.512Z,9
2023-02-19T06:20:41.508Z,10
2023-02-19T06:21:41.503Z,9
2023-02-19T06:22:41.512Z,8
2023-02-19T06:23:41.486Z,9
2023-02-19T06:24:41.493Z,9
2023-02-19T06:25:41.504Z,8
2023-02-19T06:26:41.534Z,7
2023-02-19T06:27:41.534Z,8
2023-02-19T06:28:41.500Z,7
2023-02-19T06:29:41.487Z,7
2023-02-19T06:30:41.529Z,8
2023-02-19T06:31:41.590Z,7
2023-02-19T06:32:41.507Z,7
2023-02-19T06:33:41.513Z,8
2023-02-19T06:34:41.503Z,7
2023-02-19T06:35:41.508Z,8
2023-02-19T06:36:41.502Z,8
2023-02-19T06:37:41.535Z,8
2023-02-19T06:38:41.499Z,9
2023-02-19T06:39:41.487Z,9
2023-02-19T06:40:41.510Z,9
2023-02-19T06:41:41.516Z,9
2023-02-19T06:42:41.523Z,9
2023-02-19T06:43:41.510Z,10
2023-02-19T06:44:41.513Z,10
2023-02-19T06:45:41.495Z,9
2023-02-19T06:46:41.526Z,11
2023-02-19T06:47:41.522Z,10
2023-02-19T06:48:41.524Z,10
2023-02-19T06:49:41.503Z,11
2023-02-19T06:50:41.497Z,11
2023-02-19T06:51:41.504Z,11
2023-02-19T06:52:41.506Z,11
2023-02-19T06:53:41.511Z,11
2023-02-19T06:54:41.502Z,11
2023-02-19T06:55:41.500Z,11
2023-02-19T06:56:41.502Z,11
2023-02-19T06:57:41.510Z,10
2023-02-19T06:58:41.509Z,11
2023-02-19T06:59:41.508Z,10
2023-02-19T07:00:41.534Z,9
2023-02-19T07:01:41.502Z,11
2023-02-19T07:02:41.515Z,11
2023-02-19T07:03:41.532Z,10
2023-02-19T07:04:41.495Z,10
2023-02-19T07:05:41.499Z,10
2023-02-19T07:06:41.514Z,10
2023-02-19T07:07:41.523Z,10
2023-02-19T07:08:41.503Z,11
2023-02-19T07:09:41.498Z,11
2023-02-19T07:10:41.504Z,10
2023-02-19T07:11:41.502Z,11
2023-02-19T07:12:41.514Z,11
2023-02-19T07:13:41.497Z,10
2023-02-19T07:14:41.511Z,10
2023-02-19T07:15:41.496Z,10
2023-02-19T07:16:41.601Z,10
2023-02-19T07:17:41.503Z,10
2023-02-19T07:18:41.507Z,10
2023-02-19T07:19:41.505Z,10
2023-02-19T07:20:41.504Z,10
2023-02-19T07:21:41.504Z,11
2023-02-19T07:22:41.532Z,11
2023-02-19T07:23:41.510Z,11
2023-02-19T07:24:41.485Z,10
2023-02-19T07:25:41.506Z,11
2023-02-19T07:26:41.502Z,11
2023-02-19T07:27:41.534Z,10
2023-02-19T07:28:41.503Z,11
2023-02-19T07:29:41.507Z,10
2023-02-19T07:30:41.502Z,10
2023-02-19T07:31:41.589Z,10
2023-02-19T07:32:41.523Z,10
2023-02-19T07:33:41.516Z,10
2023-02-19T07:34:41.497Z,9
2023-02-19T07:35:41.533Z,10
2023-02-19T07:36:41.498Z,10
2023-02-19T07:37:41.519Z,9
2023-02-19T07:38:41.500Z,9
2023-02-19T07:39:41.495Z,9
2023-02-19T07:40:41.500Z,9
2023-02-19T07:41:41.500Z,9
2023-02-19T07:42:41.521Z,9
2023-02-19T07:43:41.514Z,9
2023-02-19T07:44:41.491Z,9
2023-02-19T07:45:41.592Z,10
2023-02-19T07:46:41.544Z,9
2023-02-19T07:47:41.526Z,9
2023-02-19T07:48:41.525Z,9
2023-02-19T07:49:41.503Z,8
2023-02-19T07:50:41.507Z,9
2023-02-19T07:51:41.495Z,8
2023-02-19T07:52:41.553Z,8
2023-02-19T07:53:41.501Z,8
2023-02-19T07:54:41.497Z,9
2023-02-19T07:55:41.660Z,9
2023-02-19T07:56:41.504Z,9
2023-02-19T07:57:41.517Z,9
2023-02-19T07:58:41.532Z,8
2023-02-19T07:59:41.496Z,9
2023-02-19T08:00:41.493Z,9
2023-02-19T08:01:41.508Z,8
2023-02-19T08:02:41.522Z,8
2023-02-19T08:03:41.600Z,8
2023-02-19T08:04:41.495Z,9
2023-02-19T08:05:41.519Z,8
2023-02-19T08:06:41.831Z,8
2023-02-19T08:07:41.533Z,8
2023-02-19T08:08:41.533Z,9
2023-02-19T08:09:41.505Z,9
2023-02-19T08:10:41.522Z,8
2023-02-19T08:11:41.520Z,8
2023-02-19T08:12:41.514Z,8
2023-02-19T08:13:41.512Z,8
2023-02-19T08:14:41.503Z,10
2023-02-19T08:15:41.552Z,9
2023-02-19T08:16:43.495Z,9
2023-02-19T08:17:41.548Z,10
2023-02-19T08:18:41.515Z,11
2023-02-19T08:19:41.516Z,9
2023-02-19T08:20:41.504Z,8
2023-02-19T08:21:41.507Z,8
2023-02-19T08:22:41.529Z,8
2023-02-19T08:23:41.500Z,9
2023-02-19T08:24:41.506Z,9
2023-02-19T08:25:41.526Z,9
2023-02-19T08:26:41.770Z,9
2023-02-19T08:27:41.517Z,8
2023-02-19T08:28:41.504Z,9
2023-02-19T08:29:41.501Z,9
2023-02-19T08:30:41.616Z,10
2023-02-19T08:31:41.619Z,9
2023-02-19T08:32:41.551Z,9
2023-02-19T08:33:41.515Z,9
2023-02-19T08:34:41.515Z,9
2023-02-19T08:35:41.526Z,9
2023-02-19T08:36:41.501Z,9
2023-02-19T08:37:41.536Z,8
2023-02-19T08:38:41.503Z,9
2023-02-19T08:39:41.501Z,9
2023-02-19T08:40:41.524Z,8
2023-02-19T08:41:41.510Z,9
2023-02-19T08:42:41.520Z,8
2023-02-19T08:43:41.511Z,8
2023-02-19T08:44:41.501Z,9
2023-02-19T08:45:41.615Z,8
2023-02-19T08:46:41.574Z,8
2023-02-19T08:48:41.553Z,8
2023-02-19T08:49:41.523Z,8
2023-02-19T08:50:41.494Z,8
2023-02-19T08:51:41.500Z,8
2023-02-19T08:52:41.693Z,8
2023-02-19T08:53:41.498Z,9
2023-02-19T08:54:41.499Z,9
2023-02-19T08:55:41.493Z,9
2023-02-19T08:56:41.501Z,9
2023-02-19T08:57:41.540Z,9
2023-02-19T08:58:41.510Z,8
2023-02-19T08:59:41.500Z,9
2023-02-19T09:00:41.506Z,9
2023-02-19T09:01:41.579Z,9
2023-02-19T09:02:41.506Z,8
2023-02-19T09:03:41.593Z,8
2023-02-19T09:04:41.496Z,9
2023-02-19T09:05:41.511Z,9
2023-02-19T09:06:41.502Z,9
2023-02-19T09:07:41.496Z,8
2023-02-19T09:08:41.555Z,9
2023-02-19T09:09:41.507Z,12
2023-02-19T09:10:41.499Z,10
2023-02-19T09:11:41.531Z,12
2023-02-19T09:12:41.524Z,11
2023-02-19T09:13:41.508Z,10
2023-02-19T09:14:41.502Z,10
2023-02-19T09:15:41.520Z,10
2023-02-19T09:16:41.503Z,9
2023-02-19T09:17:41.489Z,8
2023-02-19T09:18:41.520Z,8
2023-02-19T09:19:41.508Z,8
2023-02-19T09:20:41.488Z,8
2023-02-19T09:21:41.498Z,8
2023-02-19T09:22:41.498Z,8
2023-02-19T09:23:41.525Z,9
2023-02-19T09:24:41.506Z,9
2023-02-19T09:26:41.498Z,17
2023-02-19T09:27:41.541Z,13
2023-02-19T09:28:41.897Z,14
2023-02-19T09:29:41.508Z,16
2023-02-19T09:30:41.634Z,10
2023-02-19T09:31:41.662Z,8
2023-02-19T09:32:41.526Z,8
2023-02-19T09:33:41.541Z,7
2023-02-19T09:34:41.528Z,8
2023-02-19T09:35:41.529Z,7
2023-02-19T09:36:41.503Z,7
2023-02-19T09:37:41.506Z,7
2023-02-19T09:38:41.532Z,7
2023-02-19T09:39:41.518Z,7
2023-02-19T09:40:41.518Z,7
2023-02-19T09:41:41.494Z,7
2023-02-19T09:42:41.517Z,7
2023-02-19T09:43:41.546Z,7
2023-02-19T09:44:41.517Z,6
2023-02-19T09:45:41.540Z,6
2023-02-19T09:46:41.509Z,6
2023-02-19T09:47:41.509Z,6
2023-02-19T09:48:41.561Z,7
2023-02-19T09:49:41.544Z,6
2023-02-19T09:50:41.536Z,6
2023-02-19T09:51:41.533Z,6
2023-02-19T09:52:41.493Z,5
2023-02-19T09:53:41.530Z,5
2023-02-19T09:54:41.514Z,6
2023-02-19T09:55:41.514Z,5
2023-02-19T09:56:41.500Z,6
2023-02-19T09:57:41.500Z,6
2023-02-19T09:58:41.521Z,5
2023-02-19T09:59:41.526Z,5
2023-02-19T10:00:41.522Z,5
2023-02-19T10:01:41.565Z,5
2023-02-19T10:02:41.504Z,5
2023-02-19T10:03:41.572Z,5
2023-02-19T10:04:41.512Z,6
2023-02-19T10:05:41.521Z,5
2023-02-19T10:06:41.507Z,5
2023-02-19T10:07:41.537Z,5
2023-02-19T10:08:41.534Z,5
2023-02-19T10:09:41.497Z,5
2023-02-19T10:10:41.517Z,5
2023-02-19T10:11:41.495Z,5
2023-02-19T10:12:41.509Z,5
2023-02-19T10:13:41.511Z,5
2023-02-19T10:14:41.513Z,5
2023-02-19T10:15:41.560Z,5
2023-02-19T10:16:41.510Z,5
2023-02-19T10:17:41.502Z,5
2023-02-19T10:18:41.534Z,5
2023-02-19T10:19:41.522Z,5
2023-02-19T10:21:41.494Z,5
2023-02-19T10:22:41.502Z,5
2023-02-19T10:23:41.500Z,5
2023-02-19T10:24:41.524Z,5
2023-02-19T10:25:41.515Z,5
2023-02-19T10:26:41.507Z,5
2023-02-19T10:27:41.506Z,5
2023-02-19T10:28:41.508Z,5
2023-02-19T10:29:41.518Z,5
2023-02-19T10:30:41.507Z,5
2023-02-19T10:31:41.674Z,5
2023-02-19T10:33:41.516Z,5
2023-02-19T10:34:41.543Z,5
2023-02-19T10:35:41.507Z,5
2023-02-19T10:36:41.510Z,5
2023-02-19T10:37:41.530Z,4
2023-02-19T10:38:41.518Z,5
2023-02-19T10:39:41.522Z,5
2023-02-19T10:40:41.533Z,5
2023-02-19T10:41:44.010Z,5
2023-02-19T10:42:41.504Z,4
2023-02-19T10:43:41.499Z,5
2023-02-19T10:44:41.531Z,5
2023-02-19T10:45:41.506Z,5
2023-02-19T10:46:41.566Z,5
2023-02-19T10:47:41.509Z,5
2023-02-19T10:48:41.508Z,5
2023-02-19T10:49:41.551Z,5
2023-02-19T10:50:41.500Z,5
2023-02-19T10:51:41.506Z,5
2023-02-19T10:52:41.519Z,5
2023-02-19T10:53:41.505Z,5
2023-02-19T10:54:41.521Z,5
2023-02-19T10:55:41.499Z,4
2023-02-19T10:56:41.508Z,5
2023-02-19T10:57:41.516Z,5
2023-02-19T10:58:41.500Z,5
2023-02-19T10:59:41.540Z,5
2023-02-19T11:00:41.502Z,5
2023-02-19T11:01:41.564Z,5
2023-02-19T11:02:41.518Z,4
2023-02-19T11:03:41.525Z,5
2023-02-19T11:04:41.583Z,5
2023-02-19T11:05:41.512Z,5
2023-02-19T11:06:41.504Z,5
2023-02-19T11:07:41.512Z,5
2023-02-19T11:08:41.514Z,6
2023-02-19T11:09:41.544Z,6
2023-02-19T11:10:41.504Z,6
2023-02-19T11:11:41.518Z,5
2023-02-19T11:12:41.498Z,6
2023-02-19T11:13:41.521Z,5
2023-02-19T11:14:41.525Z,6
2023-02-19T11:15:41.524Z,7
2023-02-19T11:16:41.528Z,6
2023-02-19T11:17:41.484Z,6
2023-02-19T11:18:41.506Z,7
2023-02-19T11:19:42.811Z,7
2023-02-19T11:20:41.513Z,8
2023-02-19T11:21:41.514Z,8
2023-02-19T11:22:41.514Z,8
2023-02-19T11:23:41.502Z,6
2023-02-19T11:24:41.509Z,6
2023-02-19T11:25:41.526Z,6
2023-02-19T11:26:41.505Z,6
2023-02-19T11:27:41.490Z,6
2023-02-19T11:29:41.506Z,7
2023-02-19T11:30:41.711Z,6
2023-02-19T11:31:41.688Z,6
2023-02-19T11:32:41.493Z,6
2023-02-19T11:33:41.511Z,6
2023-02-19T11:34:41.496Z,6
2023-02-19T11:35:41.521Z,6
2023-02-19T11:36:41.530Z,7
2023-02-19T11:37:41.521Z,6
2023-02-19T11:38:41.514Z,6
2023-02-19T11:39:41.527Z,6
2023-02-19T11:40:41.532Z,7
2023-02-19T11:41:41.516Z,7
2023-02-19T11:42:41.509Z,7
2023-02-19T11:43:41.516Z,7
2023-02-19T11:44:41.527Z,7
2023-02-19T11:45:41.516Z,6
2023-02-19T11:46:41.593Z,6
2023-02-19T11:47:41.507Z,7
2023-02-19T11:48:41.524Z,7
2023-02-19T11:49:41.520Z,6
2023-02-19T11:50:41.506Z,7
2023-02-19T11:51:41.510Z,6
2023-02-19T11:52:41.540Z,6
2023-02-19T11:53:41.523Z,7
2023-02-19T11:54:41.521Z,6
2023-02-19T11:55:41.511Z,7
2023-02-19T11:56:41.556Z,6
2023-02-19T11:57:41.533Z,7
2023-02-19T11:58:41.520Z,7
2023-02-19T11:59:41.511Z,6
2023-02-19T12:00:41.557Z,6
2023-02-19T12:01:41.621Z,7
2023-02-19T12:02:41.519Z,6
2023-02-19T12:03:41.515Z,6
2023-02-19T12:04:41.540Z,7
2023-02-19T12:05:41.515Z,6
2023-02-19T12:06:41.499Z,7
2023-02-19T12:07:41.495Z,6
2023-02-19T12:08:41.516Z,7
2023-02-19T12:09:41.510Z,6
2023-02-19T12:10:41.538Z,6
2023-02-19T12:11:41.504Z,6
2023-02-19T12:12:41.510Z,6
2023-02-19T12:13:41.512Z,6
2023-02-19T12:14:41.532Z,6
2023-02-19T12:15:41.534Z,5
2023-02-19T12:16:41.550Z,6
2023-02-19T12:17:41.508Z,6
2023-02-19T12:18:41.511Z,6
2023-02-19T12:19:41.966Z,6
2023-02-19T12:20:41.516Z,6
2023-02-19T12:21:41.524Z,6
2023-02-19T12:22:41.507Z,6
2023-02-19T12:23:41.545Z,5
2023-02-19T12:24:41.520Z,5
2023-02-19T12:25:41.539Z,5
2023-02-19T12:26:41.516Z,5
2023-02-19T12:27:41.501Z,5
2023-02-19T12:28:41.547Z,7
2023-02-19T12:29:41.508Z,6
2023-02-19T12:30:41.678Z,6
2023-02-19T12:31:41.570Z,6
2023-02-19T12:32:41.517Z,6
2023-02-19T12:33:41.492Z,6
2023-02-19T12:34:41.509Z,6
2023-02-19T12:35:41.544Z,6
2023-02-19T12:36:41.519Z,6
2023-02-19T12:37:41.525Z,6
2023-02-19T12:38:41.511Z,6
2023-02-19T12:39:41.524Z,6
2023-02-19T12:40:41.538Z,6
2023-02-19T12:41:41.511Z,5
2023-02-19T12:42:41.505Z,4
2023-02-19T12:43:41.522Z,4
2023-02-19T12:44:41.508Z,5
2023-02-19T12:45:41.556Z,5
2023-02-19T12:46:41.514Z,5
2023-02-19T12:47:41.496Z,5
2023-02-19T12:48:41.519Z,5
2023-02-19T12:49:41.532Z,4
2023-02-19T12:50:41.540Z,4
2023-02-19T12:51:41.523Z,5
2023-02-19T12:52:41.518Z,4
2023-02-19T12:53:41.633Z,4
2023-02-19T12:54:41.515Z,4
2023-02-19T12:55:41.531Z,4
2023-02-19T12:56:41.513Z,4
2023-02-19T12:58:41.504Z,4
2023-02-19T12:59:41.574Z,4
2023-02-19T13:00:41.527Z,4
2023-02-19T13:01:41.539Z,4
2023-02-19T13:02:41.527Z,4
2023-02-19T13:03:41.542Z,4
2023-02-19T13:04:41.546Z,4
2023-02-19T13:05:41.547Z,4
2023-02-19T13:06:41.520Z,3
2023-02-19T13:07:41.513Z,4
2023-02-19T13:08:48.783Z,4
2023-02-19T13:09:41.643Z,4
2023-02-19T13:10:41.543Z,5
2023-02-19T13:11:41.536Z,4
2023-02-19T13:12:41.537Z,10
2023-02-19T13:13:41.518Z,13
2023-02-19T13:14:41.535Z,14
2023-02-19T13:15:41.558Z,6
2023-02-19T13:16:41.591Z,5
2023-02-19T13:17:41.521Z,5
2023-02-19T13:18:41.537Z,6
2023-02-19T13:19:41.516Z,7
2023-02-19T13:20:41.565Z,8
2023-02-19T13:21:41.545Z,7
2023-02-19T13:22:41.524Z,8
2023-02-19T13:23:41.518Z,6
2023-02-19T13:24:41.520Z,5
2023-02-19T13:25:41.554Z,5
2023-02-19T13:26:41.528Z,5
2023-02-19T13:27:41.833Z,5
2023-02-19T13:28:41.606Z,4
2023-02-19T13:29:41.529Z,5
2023-02-19T13:30:41.700Z,5
2023-02-19T13:31:41.664Z,5
2023-02-19T13:32:41.515Z,5
2023-02-19T13:33:41.531Z,5
2023-02-19T13:34:41.522Z,5
2023-02-19T13:35:41.546Z,5
2023-02-19T13:36:41.515Z,5
2023-02-19T13:37:41.526Z,5
2023-02-19T13:38:41.531Z,4
2023-02-19T13:39:41.525Z,5
2023-02-19T13:40:41.531Z,5
2023-02-19T13:41:41.521Z,4
2023-02-19T13:42:41.515Z,4
2023-02-19T13:43:41.523Z,4
2023-02-19T13:44:41.525Z,3
2023-02-19T13:45:41.556Z,4
2023-02-19T13:46:41.532Z,4
2023-02-19T13:47:41.535Z,4
2023-02-19T13:48:41.524Z,3
2023-02-19T13:49:41.542Z,4
2023-02-19T13:50:41.566Z,4
2023-02-19T13:51:41.530Z,4
2023-02-19T13:52:41.530Z,3
2023-02-19T13:53:41.552Z,4
2023-02-19T13:54:41.527Z,4
2023-02-19T13:55:41.659Z,4
2023-02-19T13:56:41.548Z,4
2023-02-19T13:57:41.512Z,4
2023-02-19T13:58:41.530Z,4
2023-02-19T13:59:41.545Z,4
2023-02-19T14:00:41.564Z,4
2023-02-19T14:01:41.604Z,4
2023-02-19T14:02:41.554Z,4
2023-02-19T14:03:41.529Z,4
2023-02-19T14:04:41.517Z,3
2023-02-19T14:05:41.540Z,3
2023-02-19T14:06:41.531Z,3
2023-02-19T14:08:41.546Z,2
2023-02-19T14:09:41.541Z,2
2023-02-19T14:10:41.551Z,4
2023-02-19T14:11:41.583Z,3
2023-02-19T14:12:41.573Z,3
2023-02-19T14:13:41.534Z,3
2023-02-19T14:14:41.528Z,3
2023-02-19T14:15:41.643Z,2
2023-02-19T14:16:41.514Z,3
2023-02-19T14:17:41.522Z,2
2023-02-19T14:18:41.531Z,3
2023-02-19T14:19:41.542Z,2
2023-02-19T14:20:41.597Z,3
2023-02-19T14:21:41.532Z,2
2023-02-19T14:22:41.534Z,2
2023-02-19T14:23:43.260Z,3
2023-02-19T14:24:41.549Z,3
2023-02-19T14:25:41.552Z,3
2023-02-19T14:26:41.532Z,3
2023-02-19T14:27:41.539Z,3
2023-02-19T14:28:41.587Z,3
2023-02-19T14:29:41.549Z,4
2023-02-19T14:30:41.545Z,3
2023-02-19T14:31:41.659Z,4
2023-02-19T14:32:43.599Z,4
2023-02-19T14:33:41.530Z,4
2023-02-19T14:34:41.526Z,4
2023-02-19T14:35:41.594Z,4
2023-02-19T14:36:41.513Z,4
2023-02-19T14:37:41.542Z,5
2023-02-19T14:38:41.532Z,4
2023-02-19T14:39:41.526Z,4
2023-02-19T14:40:41.552Z,4
2023-02-19T14:41:41.535Z,6
2023-02-19T14:42:41.524Z,5
2023-02-19T14:43:41.522Z,5
2023-02-19T14:44:41.551Z,4
2023-02-19T14:45:41.600Z,5
2023-02-19T14:46:41.697Z,5
2023-02-19T14:47:41.531Z,4
2023-02-19T14:48:41.516Z,5
2023-02-19T14:49:41.519Z,5
2023-02-19T14:50:41.546Z,6
2023-02-19T14:51:41.544Z,6
2023-02-19T14:52:41.522Z,6
2023-02-19T14:53:41.522Z,6
2023-02-19T14:54:41.549Z,5